Time;durP1;ratioP1;P1;durP2;ratioP2;P2;SDS_P1;SDS_P2;PMS_P1;PMS_P2;Temp;Humidity;BMP_temperature;BMP_pressure;BME280_temperature;BME280_humidity;BME280_pressure;Samples;Min_cycle;Max_cycle;Signal;HPM_P1;HPM_P2
2022/09/13 00:00:35;;;;;;;;;;;14.70;99.90;;;;;;4212074;28;19935;-61
2022/09/13 00:02:48;;;;;;;;;;;14.80;99.90;;;;;;4212018;28;19924;-61
2022/09/13 00:04:52;;;;;;;;;;;14.80;99.90;;;;;;4212030;28;19928;-61
2022/09/13 00:06:56;;;;;;;;;;;14.90;99.90;;;;;;4212028;28;20383;-62
2022/09/13 00:09:01;;;;;;;;;;;14.90;99.90;;;;;;4211995;28;19931;-61
2022/09/13 00:11:05;;;;;;;;;;;14.90;99.90;;;;;;4212155;28;19928;-61
2022/09/13 00:13:08;;;;;;;;;;;14.90;99.90;;;;;;4212057;28;19930;-61
2022/09/13 00:15:12;;;;;;;;;;;14.90;99.90;;;;;;4212144;28;20374;-61
2022/09/13 00:17:14;;;;;;;;;;;14.80;99.90;;;;;;4212293;28;20387;-61
2022/09/13 00:19:17;;;;;;;;;;;14.70;99.90;;;;;;4212324;28;20295;-61
2022/09/13 00:21:20;;;;;;;;;;;14.60;99.90;;;;;;4212011;28;20007;-61
2022/09/13 00:23:23;;;;;;;;;;;14.50;99.90;;;;;;4212092;28;19953;-61
2022/09/13 00:25:28;;;;;;;;;;;14.50;99.90;;;;;;4211941;28;20509;-60
2022/09/13 00:27:34;;;;;;;;;;;14.60;99.90;;;;;;4211810;28;19932;-61
2022/09/13 00:29:52;;;;;;;;;;;14.50;99.90;;;;;;4210328;28;20386;-61
2022/09/13 00:31:56;;;;;;;;;;;14.40;99.90;;;;;;4212031;28;20468;-61
2022/09/13 00:34:01;;;;;;;;;;;14.30;99.90;;;;;;4210461;28;19932;-60
2022/09/13 00:36:06;;;;;;;;;;;14.40;99.90;;;;;;4211514;28;20351;-60
2022/09/13 00:38:08;;;;;;;;;;;14.40;99.90;;;;;;4196309;28;19928;-61
2022/09/13 00:40:35;;;;;;;;;;;14.30;99.90;;;;;;4203860;28;19931;-61
2022/09/13 00:42:37;;;;;;;;;;;14.50;99.90;;;;;;4212153;28;19931;-61
2022/09/13 00:44:44;;;;;;;;;;;14.30;99.90;;;;;;4210331;28;20007;-60
2022/09/13 00:46:56;;;;;;;;;;;14.20;99.90;;;;;;4208644;28;19928;-61
2022/09/13 00:49:01;;;;;;;;;;;14.30;99.90;;;;;;4211363;28;20391;-60
2022/09/13 00:51:07;;;;;;;;;;;14.30;99.90;;;;;;4203265;28;19939;-61
2022/09/13 00:53:24;;;;;;;;;;;14.10;99.90;;;;;;4220262;27;20372;-61
2022/09/13 00:55:32;;;;;;;;;;;14.10;99.90;;;;;;4210125;28;20479;-60
2022/09/13 00:57:35;;;;;;;;;;;14.00;99.90;;;;;;4211918;28;20347;-61
2022/09/13 01:00:12;;;;;;;;;;;14.10;99.90;;;;;;4211660;28;19982;-60
2022/09/13 01:02:16;;;;;;;;;;;14.20;99.90;;;;;;4176240;28;20486;-61
2022/09/13 01:04:20;;;;;;;;;;;14.00;99.90;;;;;;4176537;28;19929;-61
2022/09/13 01:06:32;;;;;;;;;;;14.00;99.90;;;;;;4177532;28;19928;-61
2022/09/13 01:08:43;;;;;;;;;;;14.10;99.90;;;;;;4179656;28;20299;-61
2022/09/13 01:10:48;;;;;;;;;;;14.00;99.90;;;;;;4179519;28;19933;-61
2022/09/13 01:13:03;;;;;;;;;;;13.90;99.90;;;;;;4179099;28;19979;-61
2022/09/13 01:15:07;;;;;;;;;;;13.80;99.90;;;;;;4179201;28;20395;-61
2022/09/13 01:17:30;;;;;;;;;;;13.70;99.90;;;;;;4179456;28;19952;-61
2022/09/13 01:19:32;;;;;;;;;;;13.60;99.90;;;;;;4179075;28;19925;-61
2022/09/13 01:21:45;;;;;;;;;;;13.70;99.90;;;;;;4179247;28;19929;-60
2022/09/13 01:23:58;;;;;;;;;;;13.70;99.90;;;;;;4178885;28;19924;-60
2022/09/13 01:26:27;;;;;;;;;;;13.80;99.90;;;;;;4179060;28;20403;-62
2022/09/13 01:28:52;;;;;;;;;;;13.80;99.90;;;;;;4156684;28;19928;-60
2022/09/13 01:30:58;;;;;;;;;;;13.80;99.90;;;;;;4172712;28;19929;-61
2022/09/13 01:33:00;;;;;;;;;;;13.80;99.90;;;;;;4162282;28;19925;-61
2022/09/13 01:35:03;;;;;;;;;;;13.80;99.90;;;;;;4178526;28;19929;-61
2022/09/13 01:37:16;;;;;;;;;;;13.70;99.90;;;;;;4178986;28;19983;-60
2022/09/13 01:39:30;;;;;;;;;;;13.60;99.90;;;;;;4192203;28;20447;-61
2022/09/13 01:42:04;;;;;;;;;;;13.50;99.90;;;;;;4210621;28;19935;-61
2022/09/13 01:44:07;;;;;;;;;;;13.40;99.90;;;;;;4205362;28;19932;-61
2022/09/13 01:46:17;;;;;;;;;;;13.50;99.90;;;;;;4214284;28;19928;-61
2022/09/13 01:48:32;;;;;;;;;;;13.50;99.90;;;;;;4226939;28;19973;-61
2022/09/13 01:50:38;;;;;;;;;;;13.40;99.90;;;;;;4221086;28;20357;-60
2022/09/13 01:52:42;;;;;;;;;;;13.20;99.90;;;;;;4197493;28;20299;-61
2022/09/13 01:54:51;;;;;;;;;;;13.10;99.90;;;;;;4213536;28;19977;-60
2022/09/13 01:57:13;;;;;;;;;;;13.00;99.90;;;;;;4213921;28;19924;-60
2022/09/13 01:59:31;;;;;;;;;;;13.00;99.90;;;;;;4213558;28;20421;-59
2022/09/13 02:01:44;;;;;;;;;;;13.20;99.90;;;;;;4214151;28;19953;-61
2022/09/13 02:03:54;;;;;;;;;;;13.30;99.90;;;;;;4214159;28;20118;-60
2022/09/13 02:06:05;;;;;;;;;;;13.30;99.90;;;;;;4213706;28;19930;-61
2022/09/13 02:08:34;;;;;;;;;;;13.30;99.90;;;;;;4214225;28;20420;-61
2022/09/13 02:10:40;;;;;;;;;;;13.40;99.90;;;;;;4212426;28;19927;-61
2022/09/13 02:12:44;;;;;;;;;;;13.30;99.90;;;;;;4205620;28;19970;-61
2022/09/13 02:14:51;;;;;;;;;;;13.20;99.90;;;;;;4197260;28;19936;-61
2022/09/13 02:16:59;;;;;;;;;;;13.10;99.90;;;;;;4211622;28;20031;-60
2022/09/13 02:19:09;;;;;;;;;;;13.20;99.90;;;;;;4211401;28;19935;-60
2022/09/13 02:21:20;;;;;;;;;;;13.30;99.90;;;;;;4213616;28;19928;-61
2022/09/13 02:23:31;;;;;;;;;;;13.30;99.90;;;;;;4213843;28;19931;-61
2022/09/13 02:25:36;;;;;;;;;;;13.30;99.90;;;;;;4213719;28;20364;-60
2022/09/13 02:27:40;;;;;;;;;;;13.20;99.90;;;;;;4213534;28;20011;-61
2022/09/13 02:29:46;;;;;;;;;;;13.10;99.90;;;;;;4213075;28;19934;-59
2022/09/13 02:32:04;;;;;;;;;;;13.00;99.90;;;;;;4213599;28;19949;-61
2022/09/13 02:34:20;;;;;;;;;;;13.00;99.90;;;;;;4211878;28;19928;-61
2022/09/13 02:36:25;;;;;;;;;;;12.90;99.90;;;;;;4213321;28;19931;-60
2022/09/13 02:38:46;;;;;;;;;;;12.80;99.90;;;;;;4213532;28;19928;-61
2022/09/13 02:41:20;;;;;;;;;;;12.70;99.90;;;;;;4208506;28;19928;-61
2022/09/13 02:43:40;;;;;;;;;;;12.60;99.90;;;;;;4206169;28;20022;-61
2022/09/13 02:45:55;;;;;;;;;;;12.60;99.90;;;;;;4228844;28;19928;-61
2022/09/13 02:47:59;;;;;;;;;;;12.50;99.90;;;;;;4216855;27;19935;-61
2022/09/13 02:50:10;;;;;;;;;;;12.50;99.90;;;;;;4218890;28;20383;-61
2022/09/13 02:52:20;;;;;;;;;;;12.60;99.90;;;;;;4213306;28;19960;-61
2022/09/13 02:54:44;;;;;;;;;;;12.80;99.90;;;;;;4213410;28;19982;-61
2022/09/13 02:56:56;;;;;;;;;;;12.70;99.90;;;;;;4212852;28;20398;-60
2022/09/13 02:59:11;;;;;;;;;;;12.80;99.90;;;;;;4213310;28;20291;-61
2022/09/13 03:01:14;;;;;;;;;;;12.70;99.90;;;;;;4212687;28;19951;-60
2022/09/13 03:03:28;;;;;;;;;;;12.70;99.90;;;;;;4213158;28;19924;-61
2022/09/13 03:05:34;;;;;;;;;;;12.70;99.90;;;;;;4211807;28;20426;-60
2022/09/13 03:07:39;;;;;;;;;;;12.70;99.90;;;;;;4212874;28;19924;-61
2022/09/13 03:09:52;;;;;;;;;;;12.50;99.90;;;;;;4212984;28;19928;-61
2022/09/13 03:12:03;;;;;;;;;;;12.60;99.90;;;;;;4212762;28;20015;-61
2022/09/13 03:14:09;;;;;;;;;;;12.70;99.90;;;;;;4213146;28;20360;-61
2022/09/13 03:16:31;;;;;;;;;;;12.70;99.90;;;;;;4209167;28;20143;-61
2022/09/13 03:18:53;;;;;;;;;;;12.60;99.90;;;;;;4213045;28;20351;-61
2022/09/13 03:21:17;;;;;;;;;;;12.70;99.90;;;;;;4212790;28;19963;-61
2022/09/13 03:23:28;;;;;;;;;;;12.80;99.90;;;;;;4212559;28;20353;-62
2022/09/13 03:25:42;;;;;;;;;;;12.80;99.90;;;;;;4212790;28;19924;-61
2022/09/13 03:27:50;;;;;;;;;;;12.70;99.90;;;;;;4211145;28;20326;-61
2022/09/13 03:30:04;;;;;;;;;;;12.50;99.90;;;;;;4211747;28;19931;-61
2022/09/13 03:32:17;;;;;;;;;;;12.40;99.90;;;;;;4212698;28;19931;-60
2022/09/13 03:34:36;;;;;;;;;;;12.40;99.90;;;;;;4212342;28;19924;-60
2022/09/13 03:36:44;;;;;;;;;;;12.30;99.90;;;;;;4212412;28;20007;-60
2022/09/13 03:38:54;;;;;;;;;;;12.30;99.90;;;;;;4212555;28;20407;-61
2022/09/13 03:41:04;;;;;;;;;;;12.20;99.90;;;;;;4218876;28;19978;-59
2022/09/13 03:43:10;;;;;;;;;;;12.20;99.90;;;;;;4211157;28;19931;-60
2022/09/13 03:45:17;;;;;;;;;;;12.30;99.90;;;;;;4212238;28;20291;-60
2022/09/13 03:47:20;;;;;;;;;;;12.30;99.90;;;;;;4212089;28;19977;-61
2022/09/13 03:49:24;;;;;;;;;;;12.20;99.90;;;;;;4212482;28;19928;-60
2022/09/13 03:51:28;;;;;;;;;;;12.20;99.90;;;;;;4212249;28;20377;-61
2022/09/13 03:53:48;;;;;;;;;;;12.20;99.90;;;;;;4212367;28;19990;-61
2022/09/13 03:55:55;;;;;;;;;;;12.30;99.90;;;;;;4212267;28;20493;-60
2022/09/13 03:57:59;;;;;;;;;;;12.20;99.90;;;;;;4210806;28;19924;-61
2022/09/13 04:00:02;;;;;;;;;;;12.20;99.90;;;;;;4212324;28;19978;-60
2022/09/13 04:02:10;;;;;;;;;;;12.30;99.90;;;;;;4210950;28;19939;-60
2022/09/13 04:04:13;;;;;;;;;;;12.40;99.90;;;;;;4212018;28;19924;-61
2022/09/13 04:06:17;;;;;;;;;;;12.30;99.90;;;;;;4212483;28;19932;-61
2022/09/13 04:08:21;;;;;;;;;;;12.30;99.90;;;;;;4212041;28;19947;-61
2022/09/13 04:10:43;;;;;;;;;;;12.20;99.90;;;;;;4212105;28;20433;-59
2022/09/13 04:12:45;;;;;;;;;;;12.00;99.90;;;;;;4212178;28;20010;-61
2022/09/13 04:14:48;;;;;;;;;;;11.90;99.90;;;;;;4212114;28;19932;-60
2022/09/13 04:16:55;;;;;;;;;;;12.00;99.90;;;;;;4217521;28;19934;-60
2022/09/13 04:18:58;;;;;;;;;;;12.10;99.90;;;;;;4211542;28;19928;-61
2022/09/13 04:21:09;;;;;;;;;;;12.20;99.90;;;;;;4207282;28;20295;-59
2022/09/13 04:23:11;;;;;;;;;;;12.30;99.90;;;;;;4211903;28;20284;-60
2022/09/13 04:25:33;;;;;;;;;;;12.30;99.90;;;;;;4211526;28;19928;-61
2022/09/13 04:27:35;;;;;;;;;;;12.30;99.90;;;;;;4211824;28;19981;-60
2022/09/13 04:29:38;;;;;;;;;;;12.30;99.90;;;;;;4212097;28;19986;-61
2022/09/13 04:31:41;;;;;;;;;;;12.20;99.90;;;;;;4211884;28;19928;-61
2022/09/13 04:33:45;;;;;;;;;;;12.30;99.90;;;;;;4211853;28;19963;-60
2022/09/13 04:35:56;;;;;;;;;;;12.30;99.90;;;;;;4214374;28;20002;-60
2022/09/13 04:38:00;;;;;;;;;;;12.30;99.90;;;;;;4219176;28;19928;-61
2022/09/13 04:40:08;;;;;;;;;;;12.30;99.90;;;;;;4212055;28;20469;-60
2022/09/13 04:42:10;;;;;;;;;;;12.10;99.90;;;;;;4214645;28;19928;-60
2022/09/13 04:44:15;;;;;;;;;;;12.10;99.90;;;;;;4214812;28;19924;-60
2022/09/13 04:46:18;;;;;;;;;;;12.10;99.90;;;;;;4213651;28;20410;-61
2022/09/13 04:48:22;;;;;;;;;;;12.20;99.90;;;;;;4212149;28;19924;-61
2022/09/13 04:50:26;;;;;;;;;;;12.00;99.90;;;;;;4215153;28;19966;-61
2022/09/13 04:52:28;;;;;;;;;;;11.80;99.90;;;;;;4204015;28;19928;-59
2022/09/13 04:54:35;;;;;;;;;;;11.70;99.90;;;;;;4207789;28;19924;-60
2022/09/13 04:56:39;;;;;;;;;;;11.60;99.90;;;;;;4214799;28;20352;-61
2022/09/13 04:58:42;;;;;;;;;;;11.50;99.90;;;;;;4215145;28;20341;-61
2022/09/13 05:00:55;;;;;;;;;;;11.60;99.90;;;;;;4213310;28;19924;-61
2022/09/13 05:02:58;;;;;;;;;;;11.60;99.90;;;;;;4215006;28;19942;-61
2022/09/13 05:05:04;;;;;;;;;;;11.60;99.90;;;;;;4197870;28;20331;-60
2022/09/13 05:07:07;;;;;;;;;;;11.60;99.90;;;;;;4206248;28;20015;-60
2022/09/13 05:09:12;;;;;;;;;;;11.50;99.90;;;;;;4214855;28;19931;-60
2022/09/13 05:11:21;;;;;;;;;;;11.60;99.90;;;;;;4213382;28;20012;-61
2022/09/13 05:13:24;;;;;;;;;;;11.50;99.90;;;;;;4214856;28;20273;-61
2022/09/13 05:15:28;;;;;;;;;;;11.60;99.90;;;;;;4213374;28;20006;-62
2022/09/13 05:17:34;;;;;;;;;;;11.60;99.90;;;;;;4214800;28;20368;-59
2022/09/13 05:19:37;;;;;;;;;;;11.60;99.90;;;;;;4214552;28;19928;-58
2022/09/13 05:21:49;;;;;;;;;;;11.50;99.90;;;;;;4213171;28;20392;-59
2022/09/13 05:23:52;;;;;;;;;;;11.50;99.90;;;;;;4214357;28;19928;-59
2022/09/13 05:25:57;;;;;;;;;;;11.40;99.90;;;;;;4213112;28;19924;-60
2022/09/13 05:27:59;;;;;;;;;;;11.50;99.90;;;;;;4214487;28;19932;-60
2022/09/13 05:30:02;;;;;;;;;;;11.50;99.90;;;;;;4212304;28;19928;-59
2022/09/13 05:32:05;;;;;;;;;;;11.50;99.90;;;;;;4216001;28;19970;-59
2022/09/13 05:34:10;;;;;;;;;;;11.50;99.90;;;;;;4212518;28;19924;-59
2022/09/13 05:36:32;;;;;;;;;;;11.50;99.90;;;;;;4212325;28;19924;-60
2022/09/13 05:38:34;;;;;;;;;;;11.50;99.90;;;;;;4213760;28;19931;-57
2022/09/13 05:40:38;;;;;;;;;;;11.50;99.90;;;;;;4214524;28;19960;-59
2022/09/13 05:42:42;;;;;;;;;;;11.60;99.90;;;;;;4214188;28;19924;-59
2022/09/13 05:44:44;;;;;;;;;;;11.70;99.90;;;;;;4213836;28;19947;-58
2022/09/13 05:46:47;;;;;;;;;;;11.90;99.90;;;;;;4212543;28;20213;-59
2022/09/13 05:48:51;;;;;;;;;;;11.90;99.90;;;;;;4212435;28;20467;-59
2022/09/13 05:51:02;;;;;;;;;;;11.90;99.90;;;;;;4195743;28;19938;-59
2022/09/13 05:53:06;;;;;;;;;;;11.80;99.90;;;;;;4195954;28;20308;-60
2022/09/13 05:55:08;;;;;;;;;;;11.80;99.90;;;;;;4206672;28;20410;-60
2022/09/13 05:57:12;;;;;;;;;;;11.70;99.90;;;;;;4214138;28;19931;-60
2022/09/13 05:59:34;;;;;;;;;;;11.70;99.90;;;;;;4197062;28;19957;-59
2022/09/13 06:01:38;;;;;;;;;;;11.70;99.90;;;;;;4207417;28;20367;-60
2022/09/13 06:04:00;;;;;;;;;;;11.70;99.90;;;;;;4213291;28;19980;-59
2022/09/13 06:06:05;;;;;;;;;;;11.70;99.90;;;;;;4195884;28;19934;-59
2022/09/13 06:08:07;;;;;;;;;;;11.70;99.90;;;;;;4213697;28;20289;-60
2022/09/13 06:10:12;;;;;;;;;;;11.80;99.90;;;;;;4213066;28;20367;-59
2022/09/13 06:12:14;;;;;;;;;;;11.90;99.90;;;;;;4209968;28;20416;-60
2022/09/13 06:14:25;;;;;;;;;;;12.00;99.90;;;;;;4206405;28;20058;-59
2022/09/13 06:16:35;;;;;;;;;;;12.10;99.90;;;;;;4213725;28;19998;-59
2022/09/13 06:18:39;;;;;;;;;;;12.30;99.90;;;;;;4212455;28;19928;-59
2022/09/13 06:20:44;;;;;;;;;;;12.40;99.90;;;;;;4213372;28;19935;-59
2022/09/13 06:22:46;;;;;;;;;;;12.40;99.90;;;;;;4213787;28;20380;-59
2022/09/13 06:25:01;;;;;;;;;;;12.60;99.90;;;;;;4212602;28;19930;-59
2022/09/13 06:27:04;;;;;;;;;;;12.60;99.90;;;;;;4207793;28;19924;-59
2022/09/13 06:29:10;;;;;;;;;;;12.70;99.90;;;;;;4216940;28;19928;-59
2022/09/13 06:31:14;;;;;;;;;;;12.80;99.90;;;;;;4208967;28;19977;-57
2022/09/13 06:33:16;;;;;;;;;;;13.00;99.90;;;;;;4204175;28;19975;-59
2022/09/13 06:35:30;;;;;;;;;;;13.20;99.90;;;;;;4209819;28;19928;-59
2022/09/13 06:37:33;;;;;;;;;;;13.30;99.90;;;;;;4211555;28;19970;-60
2022/09/13 06:39:39;;;;;;;;;;;13.50;99.90;;;;;;4210258;28;20295;-58
2022/09/13 06:41:42;;;;;;;;;;;13.60;99.90;;;;;;4209311;28;20284;-59
2022/09/13 06:43:46;;;;;;;;;;;13.80;99.90;;;;;;4209152;28;19924;-59
2022/09/13 06:45:49;;;;;;;;;;;13.80;99.90;;;;;;4211046;28;19967;-59
2022/09/13 06:47:52;;;;;;;;;;;13.90;99.90;;;;;;4204499;28;19931;-59
2022/09/13 06:49:59;;;;;;;;;;;14.00;99.90;;;;;;4213959;28;19966;-60
2022/09/13 06:52:02;;;;;;;;;;;14.20;99.90;;;;;;4212717;28;19931;-59
2022/09/13 06:54:05;;;;;;;;;;;14.30;99.90;;;;;;4211124;27;19935;-59
2022/09/13 06:56:10;;;;;;;;;;;14.40;99.90;;;;;;4210445;28;19959;-59
2022/09/13 06:58:13;;;;;;;;;;;14.50;99.90;;;;;;4207895;28;20360;-59
2022/09/13 07:00:18;;;;;;;;;;;14.70;99.90;;;;;;4209649;28;19982;-60
2022/09/13 07:02:21;;;;;;;;;;;14.80;99.90;;;;;;4212855;28;20144;-59
2022/09/13 07:04:24;;;;;;;;;;;14.80;99.90;;;;;;4211717;28;19924;-59
2022/09/13 07:06:39;;;;;;;;;;;15.00;99.90;;;;;;4211496;28;19935;-60
2022/09/13 07:08:43;;;;;;;;;;;15.10;99.90;;;;;;4212831;28;19924;-59
2022/09/13 07:10:56;;;;;;;;;;;15.20;99.90;;;;;;4207557;28;19924;-60
2022/09/13 07:12:59;;;;;;;;;;;15.40;99.90;;;;;;4211608;28;20302;-59
2022/09/13 07:15:02;;;;;;;;;;;15.60;99.90;;;;;;4200223;28;19925;-59
2022/09/13 07:17:05;;;;;;;;;;;15.80;99.90;;;;;;4207415;28;20005;-59
2022/09/13 07:19:28;;;;;;;;;;;15.90;99.90;;;;;;4210487;28;20380;-59
2022/09/13 07:21:34;;;;;;;;;;;16.10;99.90;;;;;;4209388;27;19924;-59
2022/09/13 07:23:38;;;;;;;;;;;16.30;99.90;;;;;;4211934;28;19934;-59
2022/09/13 07:25:40;;;;;;;;;;;16.40;99.90;;;;;;4206254;28;19974;-60
2022/09/13 07:27:43;;;;;;;;;;;16.50;99.90;;;;;;4206153;28;19924;-60
2022/09/13 07:29:46;;;;;;;;;;;16.70;99.90;;;;;;4206181;28;19935;-60
2022/09/13 07:31:52;;;;;;;;;;;16.80;99.90;;;;;;4208252;28;20349;-60
2022/09/13 07:33:56;;;;;;;;;;;16.90;99.90;;;;;;4210484;28;19939;-60
2022/09/13 07:36:05;;;;;;;;;;;17.00;99.90;;;;;;4210501;28;19931;-59
2022/09/13 07:38:14;;;;;;;;;;;17.10;99.90;;;;;;4208961;28;20034;-60
2022/09/13 07:40:16;;;;;;;;;;;17.20;99.90;;;;;;4204068;28;19929;-59
2022/09/13 07:42:19;;;;;;;;;;;17.40;99.90;;;;;;4201581;28;19975;-59
2022/09/13 07:44:28;;;;;;;;;;;17.60;99.90;;;;;;4210727;28;19932;-60
2022/09/13 07:46:35;;;;;;;;;;;17.70;99.90;;;;;;4208617;28;19935;-59
2022/09/13 07:48:39;;;;;;;;;;;17.90;99.90;;;;;;4211825;28;19935;-60
2022/09/13 07:50:42;;;;;;;;;;;18.00;99.90;;;;;;4208921;28;20023;-59
2022/09/13 07:52:44;;;;;;;;;;;18.00;99.90;;;;;;4207219;28;20358;-60
2022/09/13 07:54:47;;;;;;;;;;;18.00;99.90;;;;;;4198493;28;20312;-59
2022/09/13 07:56:53;;;;;;;;;;;18.00;99.90;;;;;;4196085;28;19960;-60
2022/09/13 07:58:59;;;;;;;;;;;18.50;99.90;;;;;;4209437;28;19977;-59
2022/09/13 08:01:05;;;;;;;;;;;18.60;99.90;;;;;;4206981;28;20002;-59
2022/09/13 08:03:09;;;;;;;;;;;19.00;99.90;;;;;;4211475;27;20019;-60
2022/09/13 08:05:31;;;;;;;;;;;19.10;99.90;;;;;;4201655;28;20281;-59
2022/09/13 08:07:34;;;;;;;;;;;19.20;99.90;;;;;;4208618;28;19928;-60
2022/09/13 08:09:39;;;;;;;;;;;19.40;99.90;;;;;;4201706;28;20050;-60
2022/09/13 08:11:46;;;;;;;;;;;19.40;99.90;;;;;;4202950;28;19924;-60
2022/09/13 08:13:52;;;;;;;;;;;19.70;99.90;;;;;;4202923;27;20411;-60
2022/09/13 08:16:04;;;;;;;;;;;19.80;99.90;;;;;;4209823;28;20440;-59
2022/09/13 08:18:08;;;;;;;;;;;19.70;99.90;;;;;;4215750;28;19938;-59
2022/09/13 08:20:13;;;;;;;;;;;19.90;99.90;;;;;;4214767;28;19928;-59
2022/09/13 08:22:16;;;;;;;;;;;20.10;99.90;;;;;;4213162;28;19932;-59
2022/09/13 08:24:20;;;;;;;;;;;20.20;99.90;;;;;;4212155;28;19981;-60
2022/09/13 08:26:24;;;;;;;;;;;20.40;99.90;;;;;;4212261;28;20015;-60
2022/09/13 08:28:26;;;;;;;;;;;20.50;99.90;;;;;;4210341;28;19968;-59
2022/09/13 08:30:32;;;;;;;;;;;20.90;99.90;;;;;;4205097;28;19936;-58
2022/09/13 08:32:34;;;;;;;;;;;20.90;99.90;;;;;;4204610;28;20300;-58
2022/09/13 08:34:40;;;;;;;;;;;20.80;99.90;;;;;;4223155;28;20006;-60
2022/09/13 08:36:42;;;;;;;;;;;20.90;99.90;;;;;;4209453;27;19970;-60
2022/09/13 08:38:46;;;;;;;;;;;20.80;99.90;;;;;;4213527;28;19955;-60
2022/09/13 08:40:58;;;;;;;;;;;21.00;99.90;;;;;;4212864;28;19924;-60
2022/09/13 08:43:20;;;;;;;;;;;21.10;99.90;;;;;;4199177;28;21241;-59
2022/09/13 08:45:25;;;;;;;;;;;21.20;99.90;;;;;;4210089;28;19924;-59
2022/09/13 08:47:39;;;;;;;;;;;21.40;99.90;;;;;;4206577;28;19928;-60
2022/09/13 08:49:49;;;;;;;;;;;21.70;99.90;;;;;;4208343;28;19989;-60
2022/09/13 08:51:56;;;;;;;;;;;21.80;99.90;;;;;;4212540;28;19963;-60
2022/09/13 08:54:27;;;;;;;;;;;22.00;99.90;;;;;;4213506;28;20345;-60
2022/09/13 08:56:55;;;;;;;;;;;22.30;99.90;;;;;;4162697;28;19932;-60
2022/09/13 08:59:02;;;;;;;;;;;22.80;99.90;;;;;;4181697;28;20407;-60
2022/09/13 09:01:23;;;;;;;;;;;23.00;99.90;;;;;;4182867;28;19956;-60
2022/09/13 09:03:35;;;;;;;;;;;23.40;99.90;;;;;;4188419;28;19995;-60
2022/09/13 09:05:47;;;;;;;;;;;23.50;99.90;;;;;;4189639;28;19965;-60
2022/09/13 09:07:56;;;;;;;;;;;23.70;99.90;;;;;;4181514;28;19929;-60
2022/09/13 09:10:03;;;;;;;;;;;23.80;99.90;;;;;;4195294;28;20011;-60
2022/09/13 09:12:18;;;;;;;;;;;24.10;99.90;;;;;;4193591;28;19963;-60
2022/09/13 09:14:28;;;;;;;;;;;24.10;99.90;;;;;;4189317;28;19939;-59
2022/09/13 09:16:37;;;;;;;;;;;24.30;99.90;;;;;;4186824;28;20478;-60
2022/09/13 09:18:47;;;;;;;;;;;24.40;99.90;;;;;;4193885;28;19929;-59
2022/09/13 09:20:58;;;;;;;;;;;23.80;99.90;;;;;;4174165;28;20019;-60
2022/09/13 09:23:03;;;;;;;;;;;23.80;99.90;;;;;;4192633;28;19932;-60
2022/09/13 09:25:09;;;;;;;;;;;24.10;99.90;;;;;;4186099;28;20303;-60
2022/09/13 09:27:17;;;;;;;;;;;24.40;99.90;;;;;;4192554;28;19928;-59
2022/09/13 09:29:27;;;;;;;;;;;24.70;99.90;;;;;;4186367;28;19925;-59
2022/09/13 09:31:33;;;;;;;;;;;24.80;99.90;;;;;;4183584;28;19936;-59
2022/09/13 09:33:53;;;;;;;;;;;24.80;99.90;;;;;;4196046;28;19924;-59
2022/09/13 09:36:12;;;;;;;;;;;24.40;99.90;;;;;;4212884;28;20449;-59
2022/09/13 09:38:41;;;;;;;;;;;25.00;99.90;;;;;;4213442;28;20074;-59
2022/09/13 09:40:44;;;;;;;;;;;24.90;99.90;;;;;;4214312;28;19932;-59
2022/09/13 09:42:49;;;;;;;;;;;25.10;99.90;;;;;;4210547;28;19963;-59
2022/09/13 09:45:18;;;;;;;;;;;25.30;99.90;;;;;;4209568;28;19942;-59
2022/09/13 09:47:24;;;;;;;;;;;25.20;99.90;;;;;;4211044;28;19928;-59
2022/09/13 09:52:07;;;;;;;;;;;25.00;99.90;;;;;;4229429;28;20292;-59
2022/09/13 09:54:11;;;;;;;;;;;25.40;99.90;;;;;;4213903;28;19928;-60
2022/09/13 09:56:27;;;;;;;;;;;25.50;99.90;;;;;;4211819;28;19939;-60
2022/09/13 09:58:37;;;;;;;;;;;25.40;99.20;;;;;;4205984;28;20067;-57
2022/09/13 10:00:52;;;;;;;;;;;25.30;99.70;;;;;;4205083;28;19928;-59
2022/09/13 10:02:58;;;;;;;;;;;25.40;99.90;;;;;;4196927;28;20296;-59
2022/09/13 10:05:02;;;;;;;;;;;25.50;99.90;;;;;;4211303;28;19927;-59
2022/09/13 10:07:09;;;;;;;;;;;25.40;98.80;;;;;;4213130;28;19924;-60
2022/09/13 10:09:21;;;;;;;;;;;25.60;99.50;;;;;;4202655;28;19946;-59
2022/09/13 10:11:39;;;;;;;;;;;25.90;99.70;;;;;;4212345;28;19928;-59
2022/09/13 10:13:59;;;;;;;;;;;25.90;99.70;;;;;;4211715;28;19927;-60
2022/09/13 10:16:28;;;;;;;;;;;25.80;98.10;;;;;;4206408;28;19928;-58
2022/09/13 10:18:36;;;;;;;;;;;25.40;98.50;;;;;;4207154;28;19924;-59
2022/09/13 10:21:06;;;;;;;;;;;25.80;98.70;;;;;;4203672;28;19935;-59
2022/09/13 10:23:12;;;;;;;;;;;26.20;97.80;;;;;;4212953;28;20027;-59
2022/09/13 10:25:21;;;;;;;;;;;25.90;97.70;;;;;;4210910;28;19932;-59
2022/09/13 10:27:27;;;;;;;;;;;26.30;97.20;;;;;;4206775;28;20438;-60
2022/09/13 10:29:31;;;;;;;;;;;26.30;96.80;;;;;;4205548;28;20391;-59
2022/09/13 10:31:40;;;;;;;;;;;26.50;97.30;;;;;;4219177;27;19932;-59
2022/09/13 10:33:46;;;;;;;;;;;26.00;96.20;;;;;;4211500;28;19928;-59
2022/09/13 10:35:54;;;;;;;;;;;25.70;96.20;;;;;;4211194;28;20007;-59
2022/09/13 10:37:58;;;;;;;;;;;25.90;96.80;;;;;;4211197;27;19924;-59
2022/09/13 10:40:06;;;;;;;;;;;26.30;96.60;;;;;;4205113;28;19975;-59
2022/09/13 10:42:09;;;;;;;;;;;26.00;95.50;;;;;;4203878;28;20375;-59
2022/09/13 10:44:25;;;;;;;;;;;26.10;96.70;;;;;;4209214;28;20379;-60
2022/09/13 10:46:47;;;;;;;;;;;26.60;95.80;;;;;;4210795;28;19975;-60
2022/09/13 10:48:57;;;;;;;;;;;26.50;95.70;;;;;;4212746;28;19968;-59
2022/09/13 10:51:12;;;;;;;;;;;26.30;95.20;;;;;;4210700;28;20710;-60
2022/09/13 10:53:35;;;;;;;;;;;26.30;95.80;;;;;;4202862;28;20011;-59
2022/09/13 10:55:42;;;;;;;;;;;26.80;95.30;;;;;;4213046;28;20375;-60
2022/09/13 10:57:51;;;;;;;;;;;26.70;94.20;;;;;;4212873;28;19978;-60
2022/09/13 10:59:57;;;;;;;;;;;26.90;95.00;;;;;;4212825;28;19963;-60
2022/09/13 11:02:16;;;;;;;;;;;26.90;95.00;;;;;;4212878;28;19928;-59
2022/09/13 11:04:33;;;;;;;;;;;27.00;94.20;;;;;;4212865;28;19924;-59
2022/09/13 11:06:44;;;;;;;;;;;27.20;94.80;;;;;;4212975;28;19928;-59
2022/09/13 11:09:05;;;;;;;;;;;27.40;94.40;;;;;;4205005;28;19924;-59
2022/09/13 11:11:36;;;;;;;;;;;27.00;94.10;;;;;;4216636;28;19978;-59
2022/09/13 11:13:44;;;;;;;;;;;27.30;93.80;;;;;;4212831;28;19932;-59
2022/09/13 11:16:12;;;;;;;;;;;27.50;94.30;;;;;;4212890;28;19924;-60
2022/09/13 11:18:18;;;;;;;;;;;27.30;93.90;;;;;;4196093;28;19925;-59
2022/09/13 11:20:39;;;;;;;;;;;27.10;93.80;;;;;;4202672;28;19928;-60
2022/09/13 11:23:01;;;;;;;;;;;27.20;93.90;;;;;;4197781;28;19924;-59
2022/09/13 11:25:24;;;;;;;;;;;27.10;92.30;;;;;;4212810;28;20303;-59
2022/09/13 11:27:43;;;;;;;;;;;27.00;91.90;;;;;;4212677;28;19928;-59
2022/09/13 11:30:19;;;;;;;;;;;27.20;93.00;;;;;;4212355;28;19930;-60
2022/09/13 11:32:37;;;;;;;;;;;27.60;92.20;;;;;;4212649;28;20295;-60
2022/09/13 11:35:02;;;;;;;;;;;27.40;91.40;;;;;;4212685;28;19932;-60
2022/09/13 11:37:05;;;;;;;;;;;27.40;91.10;;;;;;4212007;28;19931;-59
2022/09/13 11:39:18;;;;;;;;;;;27.40;92.30;;;;;;4211035;28;20311;-59
2022/09/13 11:41:32;;;;;;;;;;;27.40;92.80;;;;;;4212356;28;19932;-60
2022/09/13 11:43:54;;;;;;;;;;;27.70;91.90;;;;;;4195494;28;19934;-59
2022/09/13 11:46:03;;;;;;;;;;;27.90;90.80;;;;;;4204636;28;20019;-60
2022/09/13 11:48:26;;;;;;;;;;;27.60;91.70;;;;;;4211901;28;19924;-58
2022/09/13 11:50:32;;;;;;;;;;;28.40;92.20;;;;;;4210338;28;20473;-59
2022/09/13 11:52:43;;;;;;;;;;;28.10;90.50;;;;;;4200281;28;19924;-59
2022/09/13 11:54:49;;;;;;;;;;;28.00;90.60;;;;;;4198571;28;20007;-60
2022/09/13 11:56:56;;;;;;;;;;;27.70;88.50;;;;;;4212690;28;19924;-59
2022/09/13 11:58:58;;;;;;;;;;;27.70;87.90;;;;;;4212414;28;20308;-59
2022/09/13 12:01:09;;;;;;;;;;;27.80;88.50;;;;;;4217845;28;20026;-60
2022/09/13 12:03:20;;;;;;;;;;;27.60;87.90;;;;;;4212158;28;20303;-60
2022/09/13 12:05:25;;;;;;;;;;;27.90;89.80;;;;;;4210545;28;19924;-59
2022/09/13 12:07:33;;;;;;;;;;;27.90;86.90;;;;;;4226417;28;19924;-60
2022/09/13 12:09:39;;;;;;;;;;;28.20;87.90;;;;;;4217754;28;19924;-59
2022/09/13 12:11:47;;;;;;;;;;;28.80;88.40;;;;;;4200003;28;19928;-59
2022/09/13 12:13:55;;;;;;;;;;;28.90;87.60;;;;;;4197167;28;19981;-60
2022/09/13 12:16:06;;;;;;;;;;;29.20;88.40;;;;;;4212015;28;19928;-59
2022/09/13 12:18:09;;;;;;;;;;;29.00;86.50;;;;;;4210947;28;19960;-60
2022/09/13 12:20:28;;;;;;;;;;;28.70;86.00;;;;;;4211687;28;19924;-58
2022/09/13 12:22:33;;;;;;;;;;;28.80;89.00;;;;;;4212178;28;20315;-60
2022/09/13 12:24:47;;;;;;;;;;;29.30;91.70;;;;;;4211908;28;20027;-60
2022/09/13 12:26:53;;;;;;;;;;;30.30;90.70;;;;;;4212041;28;20443;-60
2022/09/13 12:29:22;;;;;;;;;;;29.80;85.20;;;;;;4210764;28;20456;-58
2022/09/13 12:31:27;;;;;;;;;;;29.50;85.80;;;;;;4208142;28;19924;-59
2022/09/13 12:33:30;;;;;;;;;;;29.50;85.20;;;;;;4212047;28;19954;-60